Time;durP1;ratioP1;P1;durP2;ratioP2;P2;SDS_P1;SDS_P2;PMS_P1;PMS_P2;Temp;Humidity;BMP_temperature;BMP_pressure;BME280_temperature;BME280_humidity;BME280_pressure;Samples;Min_cycle;Max_cycle;Signal;HPM_P1;HPM_P2
2022/01/25 00:08:54;;;;;;;52.42;27.88;;;;;;;-0.92;76.23;97568.19;10378341;28;96995;-66
2022/01/25 00:25:04;;;;;;;57.80;31.25;;;;;;;-0.72;76.78;97567.63;10356760;28;96831;-66
2022/01/25 00:30:25;;;;;;;61.88;30.98;;;;;;;-0.65;77.08;97572.56;10368619;28;97460;-66
2022/01/25 00:35:28;;;;;;;60.80;30.95;;;;;;;-0.62;76.93;97577.59;10346269;28;101493;-66
2022/01/25 00:40:32;;;;;;;54.13;31.05;;;;;;;-0.54;77.17;97579.03;10348373;28;97167;-66
2022/01/25 00:45:35;;;;;;;51.63;28.83;;;;;;;-0.52;77.06;97573.88;10355378;28;97088;-66
2022/01/25 00:50:41;;;;;;;60.63;30.92;;;;;;;-0.50;77.03;97572.09;10348452;28;96801;-66
2022/01/25 00:55:45;;;;;;;59.13;30.25;;;;;;;-0.45;77.40;97572.78;10356525;28;97024;-66
2022/01/25 01:00:48;;;;;;;53.95;29.70;;;;;;;-0.47;77.17;97577.13;10359981;28;97016;-67
2022/01/25 01:05:51;;;;;;;61.78;31.58;;;;;;;-0.48;77.63;97580.59;10364100;28;97404;-67
2022/01/25 01:10:57;;;;;;;58.65;31.05;;;;;;;-0.44;76.95;97581.31;10368658;28;97514;-66
2022/01/25 01:16:19;;;;;;;52.78;28.02;;;;;;;-0.36;77.41;97593.03;10386275;28;96844;-67
2022/01/25 01:32:20;;;;;;;63.67;31.15;;;;;;;-0.56;78.15;97595.41;10371222;28;97830;-66
2022/01/25 01:48:08;;;;;;;60.25;30.17;;;;;;;-0.47;77.52;97587.41;10371558;28;98474;-66
2022/01/25 01:53:11;;;;;;;62.20;31.30;;;;;;;-0.48;78.13;97583.16;10379690;28;97029;-66
2022/01/25 01:58:16;;;;;;;54.97;28.60;;;;;;;-0.42;78.03;97588.09;10372352;28;96895;-66
2022/01/25 02:03:20;;;;;;;54.88;28.35;;;;;;;-0.34;77.54;97600.69;10376010;27;96979;-67
2022/01/25 02:08:23;;;;;;;59.17;29.40;;;;;;;-0.50;78.30;97586.66;10359936;28;98046;-67
2022/01/25 02:13:28;;;;;;;65.30;29.58;;;;;;;-0.78;78.83;97596.00;10367588;28;96854;-66
2022/01/25 02:23:52;;;;;;;58.75;29.38;;;;;;;-1.00;79.60;97597.50;10359226;28;97755;-66
2022/01/25 02:28:55;;;;;;;65.55;30.73;;;;;;;-1.00;79.51;97580.38;10381769;28;96937;-66
2022/01/25 02:33:58;;;;;;;63.00;30.40;;;;;;;-0.96;79.27;97579.44;10372049;28;97204;-66
2022/01/25 02:39:03;;;;;;;68.63;30.83;;;;;;;-0.98;79.20;97573.50;10375214;28;103802;-66
2022/01/25 02:44:08;;;;;;;62.95;29.73;;;;;;;-1.14;79.58;97578.22;10379929;28;104343;-66
2022/01/25 02:49:12;;;;;;;67.00;31.88;;;;;;;-1.23;79.22;97575.09;10387235;27;96887;-66
2022/01/25 02:54:17;;;;;;;66.93;32.57;;;;;;;-1.26;80.27;97578.56;10365506;28;96746;-68
2022/01/25 02:59:20;;;;;;;70.13;30.90;;;;;;;-1.23;79.68;97586.16;10365792;28;97075;-66
2022/01/25 03:04:24;;;;;;;65.57;30.67;;;;;;;-1.10;80.00;97577.25;10357605;28;96881;-67
2022/01/25 03:09:28;;;;;;;66.18;31.35;;;;;;;-1.00;79.24;97580.38;10374219;28;96899;-66
2022/01/25 03:14:34;;;;;;;69.15;31.15;;;;;;;-0.99;79.21;97578.69;10364370;28;97109;-67
2022/01/25 03:19:51;;;;;;;66.88;31.55;;;;;;;-0.96;79.52;97583.69;10373241;28;97194;-66
2022/01/25 03:24:55;;;;;;;68.95;30.25;;;;;;;-1.21;80.60;97574.13;10377873;28;98331;-66
2022/01/25 03:29:58;;;;;;;63.78;28.48;;;;;;;-1.33;80.26;97569.34;10366780;28;96963;-67
2022/01/25 03:35:01;;;;;;;66.45;30.92;;;;;;;-1.32;80.69;97578.75;10370519;28;97083;-66
2022/01/25 03:40:07;;;;;;;69.15;30.60;;;;;;;-1.37;81.02;97576.28;10371354;28;101559;-66
2022/01/25 03:45:17;;;;;;;63.00;29.80;;;;;;;-1.39;80.25;97579.78;10384434;27;96887;-66
2022/01/25 03:50:20;;;;;;;76.25;33.65;;;;;;;-1.53;80.50;97572.47;10358601;28;97125;-66
2022/01/25 03:55:25;;;;;;;71.45;31.35;;;;;;;-1.57;81.02;97576.84;10377113;28;98904;-66
2022/01/25 04:00:28;;;;;;;65.82;29.15;;;;;;;-1.52;81.48;97567.31;10370529;28;97425;-66
2022/01/25 04:05:36;;;;;;;68.45;29.52;;;;;;;-1.60;81.04;97570.94;10360981;28;97589;-66
2022/01/25 04:10:41;;;;;;;64.85;29.80;;;;;;;-1.64;80.78;97575.28;10346205;28;97893;-66
2022/01/25 04:15:46;;;;;;;65.45;28.75;;;;;;;-1.71;81.52;97574.63;10353739;28;101549;-67
2022/01/25 04:20:58;;;;;;;52.70;24.03;;;;;;;-1.69;81.57;97567.75;10358710;28;98717;-66
2022/01/25 04:26:02;;;;;;;54.50;25.35;;;;;;;-1.78;80.88;97570.53;10370533;28;96925;-66
2022/01/25 04:31:05;;;;;;;58.53;25.85;;;;;;;-1.73;81.52;97565.28;10372863;28;97108;-66
2022/01/25 04:36:26;;;;;;;61.40;27.42;;;;;;;-1.84;81.37;97568.97;10372809;28;96939;-66
2022/01/25 04:52:15;;;;;;;61.20;27.17;;;;;;;-1.94;81.85;97566.69;10370169;28;98487;-67
2022/01/25 04:57:32;;;;;;;71.35;29.20;;;;;;;-1.96;81.71;97569.28;10378995;28;97086;-66
2022/01/25 05:02:45;;;;;;;67.88;28.42;;;;;;;-1.99;81.52;97568.50;10357243;28;96813;-66
2022/01/25 05:07:59;;;;;;;66.57;28.02;;;;;;;-1.95;81.14;97570.97;10361880;28;97252;-68
2022/01/25 05:13:16;;;;;;;60.22;26.85;;;;;;;-1.98;81.36;97571.03;10367394;28;97192;-66
2022/01/25 05:18:25;;;;;;;63.55;26.85;;;;;;;-2.01;82.38;97575.41;10352818;28;97176;-66
2022/01/25 05:23:27;;;;;;;67.38;27.27;;;;;;;-2.08;81.70;97574.69;10355690;28;101316;-67
2022/01/25 05:28:32;;;;;;;61.15;26.52;;;;;;;-2.09;82.20;97579.00;10358924;28;96891;-66
2022/01/25 05:33:35;;;;;;;67.10;27.47;;;;;;;-1.94;81.66;97576.94;10369894;28;96818;-66
2022/01/25 05:38:38;;;;;;;63.45;27.13;;;;;;;-1.86;81.54;97580.16;10363540;28;99152;-66
2022/01/25 05:44:05;;;;;;;58.47;27.50;;;;;;;-1.78;81.81;97583.34;10360163;28;96823;-66
2022/01/25 05:49:08;;;;;;;64.90;28.35;;;;;;;-1.97;82.06;97588.06;10385876;27;97959;-67
2022/01/25 05:54:10;;;;;;;62.78;26.92;;;;;;;-1.96;81.62;97592.31;10376887;27;98519;-66
2022/01/25 05:59:15;;;;;;;69.80;28.23;;;;;;;-2.08;81.41;97595.19;10371553;28;97210;-66
2022/01/25 06:04:18;;;;;;;75.45;30.75;;;;;;;-2.16;81.81;97591.97;10374723;28;99270;-66
2022/01/25 06:09:24;;;;;;;69.30;26.88;;;;;;;-2.08;81.87;97601.13;10360678;28;96887;-66
2022/01/25 06:14:29;;;;;;;60.28;25.50;;;;;;;-2.20;81.55;97600.59;10356720;28;98593;-66
2022/01/25 06:19:32;;;;;;;66.15;27.95;;;;;;;-2.24;82.20;97605.78;10379343;28;97059;-68
2022/01/25 06:24:35;;;;;;;68.78;28.55;;;;;;;-2.15;82.69;97609.00;10374744;28;98410;-66
2022/01/25 06:29:39;;;;;;;70.18;28.52;;;;;;;-1.99;81.67;97610.31;10354007;28;98359;-66
2022/01/25 06:34:43;;;;;;;81.07;27.65;;;;;;;-1.97;82.34;97608.56;10353587;28;104745;-67
2022/01/25 06:39:46;;;;;;;68.32;29.38;;;;;;;-1.97;82.36;97610.28;10375062;27;96873;-66
2022/01/25 06:44:53;;;;;;;72.28;29.33;;;;;;;-2.02;81.53;97607.84;10373753;28;101230;-67
2022/01/25 06:49:57;;;;;;;65.07;26.40;;;;;;;-2.14;81.70;97615.81;10363223;28;97711;-66
2022/01/25 06:55:00;;;;;;;77.78;29.30;;;;;;;-2.23;81.82;97616.84;10364272;28;97373;-66
2022/01/25 07:00:08;;;;;;;79.30;27.83;;;;;;;-2.45;82.52;97617.34;10372731;28;97254;-68
2022/01/25 07:05:11;;;;;;;70.07;27.98;;;;;;;-2.45;81.93;97611.41;10366338;28;96966;-67
2022/01/25 07:10:14;;;;;;;64.45;26.42;;;;;;;-2.58;83.57;97609.97;10380876;28;98413;-68
2022/01/25 07:15:19;;;;;;;67.57;26.90;;;;;;;-2.44;82.17;97607.94;10379528;28;96962;-66
2022/01/25 07:20:22;;;;;;;75.07;26.73;;;;;;;-2.43;82.13;97622.44;10372314;28;96710;-67
2022/01/25 07:25:26;;;;;;;79.32;28.30;;;;;;;-2.51;82.85;97622.59;10366970;28;96870;-67
2022/01/25 07:30:30;;;;;;;76.35;28.33;;;;;;;-2.38;82.80;97628.31;10360243;28;96910;-66
2022/01/25 07:35:34;;;;;;;80.33;29.03;;;;;;;-2.32;82.31;97627.31;10369797;27;96798;-67
2022/01/25 07:40:37;;;;;;;81.13;28.73;;;;;;;-2.35;82.39;97638.47;10364395;28;96814;-67
2022/01/25 07:45:50;;;;;;;83.88;26.70;;;;;;;-2.35;83.20;97643.59;10346475;28;98691;-66
2022/01/25 07:50:53;;;;;;;83.53;28.65;;;;;;;-2.41;83.24;97636.03;10346649;28;97211;-66
2022/01/25 07:55:56;;;;;;;84.35;30.13;;;;;;;-2.27;82.54;97641.69;10351878;28;96832;-66
2022/01/25 08:01:00;;;;;;;72.47;29.75;;;;;;;-2.07;82.35;97637.84;10349551;28;97216;-67
2022/01/25 08:06:04;;;;;;;75.90;30.23;;;;;;;-1.96;82.53;97635.88;10367498;28;96886;-66
2022/01/25 08:11:20;;;;;;;74.07;29.55;;;;;;;-2.12;82.64;97634.56;10349903;28;96833;-66
2022/01/25 08:16:34;;;;;;;71.78;28.75;;;;;;;-2.07;82.83;97635.28;10375891;28;99048;-67
2022/01/25 08:21:43;;;;;;;79.72;29.10;;;;;;;-2.06;83.54;97639.50;10379919;28;98603;-66
2022/01/25 08:26:59;;;;;;;79.47;30.85;;;;;;;-1.99;83.19;97635.09;10246108;28;96959;-67
2022/01/25 08:32:08;;;;;;;88.13;32.55;;;;;;;-1.91;82.91;97639.16;10247844;28;97821;-66
2022/01/25 08:37:25;;;;;;;78.25;29.05;;;;;;;-1.69;82.26;97641.19;10230902;28;96975;-67
2022/01/25 08:42:42;;;;;;;68.63;26.92;;;;;;;-1.59;82.30;97644.38;10126814;28;97139;-66
2022/01/25 08:47:50;;;;;;;73.00;28.58;;;;;;;-1.64;81.74;97647.03;10124588;28;98491;-66
2022/01/25 08:53:11;;;;;;;76.50;30.55;;;;;;;-1.63;83.01;97643.59;10231957;28;96911;-66
2022/01/25 08:58:44;;;;;;;71.88;29.77;;;;;;;-1.38;82.32;97642.97;10232552;28;97258;-67
2022/01/25 09:03:49;;;;;;;71.50;30.35;;;;;;;-1.17;82.33;97650.13;10232524;28;97160;-66
2022/01/25 09:08:53;;;;;;;65.53;27.92;;;;;;;-0.95;81.37;97642.66;10235613;28;98722;-67
2022/01/25 09:13:56;;;;;;;74.03;30.58;;;;;;;-0.95;81.22;97644.41;10231494;28;97329;-67
2022/01/25 09:19:00;;;;;;;76.13;29.05;;;;;;;-1.12;81.54;97639.72;10288743;28;96972;-66
2022/01/25 09:24:04;;;;;;;73.32;29.65;;;;;;;-1.25;82.83;97648.66;10361642;28;97959;-66
2022/01/25 09:29:07;;;;;;;71.40;30.20;;;;;;;-1.36;82.95;97646.34;10368313;28;97031;-67
2022/01/25 09:34:12;;;;;;;76.15;30.17;;;;;;;-1.30;82.59;97647.03;10377882;28;97748;-67
2022/01/25 09:42:57;;;;;;;72.38;30.80;;;;;;;-1.19;82.15;97649.28;10404548;27;96852;-65
2022/01/25 09:48:00;;;;;;;84.50;30.40;;;;;;;-1.35;83.07;97648.03;10347157;28;97730;-65
2022/01/25 09:53:09;;;;;;;75.95;29.95;;;;;;;-1.24;83.07;97646.00;10350067;28;97816;-65
2022/01/25 09:58:14;;;;;;;76.72;33.20;;;;;;;-0.82;82.44;97647.44;10357662;28;97172;-65
2022/01/25 10:03:25;;;;;;;70.95;31.08;;;;;;;-0.54;82.38;97642.38;10365613;28;97228;-65
2022/01/25 10:08:32;;;;;;;67.70;29.00;;;;;;;-0.35;82.25;97648.66;10356685;28;97932;-65
2022/01/25 10:13:38;;;;;;;68.82;30.92;;;;;;;-0.30;81.61;97647.66;10360492;28;101314;-65
2022/01/25 10:18:43;;;;;;;68.88;31.25;;;;;;;-0.15;81.55;97650.63;10362360;28;96820;-66
2022/01/25 10:24:08;;;;;;;70.38;31.63;;;;;;;-0.01;81.34;97652.78;10353598;28;97656;-65
2022/01/25 10:29:14;;;;;;;74.88;31.70;;;;;;;0.12;81.11;97645.50;10371756;28;100606;-65
2022/01/25 10:34:20;;;;;;;74.10;31.17;;;;;;;0.00;81.08;97646.72;10362824;28;97191;-65
2022/01/25 10:39:28;;;;;;;77.60;33.08;;;;;;;-0.13;81.24;97653.13;10350992;28;96919;-65
2022/01/25 10:44:49;;;;;;;76.30;33.28;;;;;;;-0.28;81.31;97648.47;10372632;28;97632;-65
2022/01/25 10:49:52;;;;;;;75.05;31.98;;;;;;;-0.38;81.40;97650.47;10362172;28;99231;-65
2022/01/25 10:54:55;;;;;;;74.97;30.92;;;;;;;-0.53;81.77;97636.34;10316234;28;96978;-65
2022/01/25 11:00:01;;;;;;;71.90;31.70;;;;;;;-0.52;81.63;97638.03;10342820;28;96919;-66
2022/01/25 11:05:06;;;;;;;72.78;32.63;;;;;;;-0.66;81.83;97633.31;10329083;28;96855;-65
2022/01/25 11:10:15;;;;;;;70.57;31.55;;;;;;;-0.67;82.18;97623.09;10330598;28;98424;-66
2022/01/25 11:15:20;;;;;;;67.43;31.55;;;;;;;-0.30;81.49;97619.41;10338914;28;96808;-65
2022/01/25 11:20:23;;;;;;;73.00;31.98;;;;;;;0.11;81.37;97607.00;10338605;28;97085;-65
2022/01/25 11:25:28;;;;;;;66.13;30.67;;;;;;;0.42;79.94;97612.81;10336447;28;97176;-66
2022/01/25 11:30:32;;;;;;;72.45;31.60;;;;;;;0.50;79.56;97622.03;10320624;28;97893;-65
2022/01/25 11:35:36;;;;;;;74.75;32.75;;;;;;;0.67;79.44;97619.72;10325214;28;97124;-65
2022/01/25 11:40:41;;;;;;;71.68;32.13;;;;;;;0.95;79.01;97618.75;10322972;28;97043;-66
2022/01/25 11:45:48;;;;;;;73.30;33.15;;;;;;;1.02;78.75;97619.34;10334753;28;100089;-66
2022/01/25 11:50:51;;;;;;;63.95;30.20;;;;;;;0.82;78.80;97617.50;10337769;28;101943;-65
2022/01/25 11:55:55;;;;;;;71.28;32.83;;;;;;;0.79;79.14;97614.13;10320742;28;99382;-67
2022/01/25 12:01:02;;;;;;;64.60;30.40;;;;;;;0.75;78.99;97604.84;10328222;28;98470;-65
2022/01/25 12:06:09;;;;;;;68.30;32.45;;;;;;;0.56;78.91;97604.63;10325095;28;96914;-67
2022/01/25 12:11:36;;;;;;;73.20;33.00;;;;;;;0.91;78.49;97596.56;10320170;28;97126;-66
2022/01/25 12:16:44;;;;;;;70.28;31.05;;;;;;;1.09;78.09;97595.91;10318010;28;97958;-66
2022/01/25 12:22:06;;;;;;;72.65;33.67;;;;;;;1.13;78.22;97587.19;10318633;28;96868;-65
2022/01/25 12:27:19;;;;;;;69.25;31.95;;;;;;;1.13;77.70;97582.03;10326247;28;96936;-65
2022/01/25 12:32:28;;;;;;;69.30;31.10;;;;;;;1.30;77.33;97573.69;10330406;28;97179;-65
2022/01/25 12:37:55;;;;;;;70.57;33.42;;;;;;;1.69;76.23;97564.47;10337922;28;98024;-65
2022/01/25 12:43:00;;;;;;;70.85;33.42;;;;;;;1.74;75.71;97552.25;10318931;28;97198;-65
2022/01/25 12:48:07;;;;;;;76.80;36.30;;;;;;;1.88;75.64;97544.81;10328662;28;97027;-65
2022/01/25 12:53:13;;;;;;;66.35;31.73;;;;;;;1.94;75.57;97544.56;10322481;28;97224;-65
2022/01/25 12:58:16;;;;;;;70.57;32.83;;;;;;;1.51;75.72;97535.16;10327593;28;98627;-65
2022/01/25 13:03:26;;;;;;;63.67;30.92;;;;;;;1.36;77.22;97539.13;10331225;28;98200;-66
2022/01/25 13:08:37;;;;;;;67.22;30.83;;;;;;;1.24;76.87;97529.31;10323178;28;101330;-65
2022/01/25 13:13:56;;;;;;;70.68;33.33;;;;;;;0.93;77.14;97530.47;10331327;28;96899;-65
2022/01/25 13:19:00;;;;;;;76.43;35.08;;;;;;;0.70;77.08;97514.13;10316957;28;97019;-65
2022/01/25 13:24:08;;;;;;;69.63;33.05;;;;;;;0.55;77.53;97512.97;10320257;28;98631;-66
2022/01/25 13:34:31;;;;;;;73.88;33.20;;;;;;;-0.03;78.47;97502.94;10332501;28;97038;-65
2022/01/25 13:39:35;;;;;;;75.88;34.55;;;;;;;0.33;77.99;97506.91;10337673;28;97841;-65
2022/01/25 13:50:02;;;;;;;75.97;35.42;;;;;;;0.76;76.54;97513.91;10343966;28;96881;-65
2022/01/25 13:55:09;;;;;;;72.45;31.77;;;;;;;1.05;76.53;97506.84;10323171;28;96926;-65
2022/01/25 14:00:13;;;;;;;73.90;34.35;;;;;;;1.30;75.63;97496.47;10330204;28;98226;-66
2022/01/25 14:05:17;;;;;;;73.47;33.35;;;;;;;1.41;75.74;97493.47;10320477;28;96937;-65
2022/01/25 14:10:24;;;;;;;73.53;33.67;;;;;;;1.14;76.04;97495.34;10325656;28;96837;-66
2022/01/25 14:26:12;;;;;;;72.10;33.40;;;;;;;0.49;77.31;97496.91;10330884;28;101029;-66
2022/01/25 14:31:16;;;;;;;72.93;34.83;;;;;;;0.50;77.08;97493.47;10332190;28;99122;-66
2022/01/25 14:36:22;;;;;;;71.40;32.95;;;;;;;0.22;78.04;97494.44;10327857;28;96886;-65
2022/01/25 14:41:29;;;;;;;73.68;32.42;;;;;;;-0.02;77.91;97491.81;10324764;28;97115;-66
2022/01/25 14:46:35;;;;;;;81.13;34.03;;;;;;;-0.10;78.47;97486.06;10319761;28;96893;-66
2022/01/25 14:51:41;;;;;;;78.43;35.33;;;;;;;-0.03;78.67;97489.28;10330555;28;96902;-66
2022/01/25 14:56:48;;;;;;;77.68;33.40;;;;;;;0.05;78.11;97482.16;10336092;28;98804;-66
2022/01/25 15:01:52;;;;;;;77.45;34.58;;;;;;;-0.04;78.24;97493.59;10339149;28;98478;-67
2022/01/25 15:06:57;;;;;;;77.10;35.13;;;;;;;-0.10;78.61;97488.63;10326193;28;98427;-65
2022/01/25 15:12:00;;;;;;;78.40;34.10;;;;;;;-0.30;78.70;97496.16;10336355;28;96968;-68
2022/01/25 15:17:03;;;;;;;80.68;34.83;;;;;;;-0.27;79.24;97499.47;10329942;28;98376;-65
2022/01/25 15:22:08;;;;;;;87.00;37.22;;;;;;;-0.19;78.76;97494.94;10342486;28;96838;-66
2022/01/25 15:27:12;;;;;;;74.25;34.58;;;;;;;-0.05;78.33;97484.19;10326663;28;99029;-66
2022/01/25 15:32:15;;;;;;;83.72;37.08;;;;;;;-0.29;78.65;97473.00;10334632;28;98215;-65
2022/01/25 15:37:22;;;;;;;76.82;34.35;;;;;;;-0.28;78.76;97474.69;10338383;28;97043;-67
2022/01/25 15:42:28;;;;;;;75.40;34.25;;;;;;;-0.09;78.41;97472.34;10330177;28;101269;-65
2022/01/25 15:47:31;;;;;;;76.78;32.92;;;;;;;0.04;78.12;97476.16;10335272;28;100822;-66
2022/01/25 15:52:35;;;;;;;79.32;34.85;;;;;;;-0.01;77.95;97475.50;10337877;28;97370;-69
2022/01/25 15:57:38;;;;;;;77.88;35.00;;;;;;;-0.30;78.92;97480.75;10330263;28;97084;-66
2022/01/25 16:02:40;;;;;;;85.13;35.03;;;;;;;-0.68;79.83;97472.56;10331708;28;97196;-66
2022/01/25 16:07:47;;;;;;;80.63;35.35;;;;;;;-0.72;80.33;97472.66;10332829;28;103892;-66
2022/01/25 16:12:50;;;;;;;80.88;35.15;;;;;;;-0.64;79.47;97476.72;10343201;28;96895;-66
2022/01/25 16:17:53;;;;;;;83.40;35.28;;;;;;;-0.64;79.75;97474.16;10340391;28;96891;-66
2022/01/25 16:22:58;;;;;;;74.50;33.83;;;;;;;-0.50;78.96;97478.84;10320718;28;97361;-66
2022/01/25 16:28:01;;;;;;;82.77;34.87;;;;;;;-0.43;79.18;97476.03;10322458;28;97146;-65
2022/01/25 16:33:04;;;;;;;80.22;33.53;;;;;;;-0.49;78.75;97472.81;10336799;28;98899;-66
2022/01/25 16:38:08;;;;;;;83.47;36.17;;;;;;;-0.51;78.76;97472.88;10330791;28;101084;-66
2022/01/25 16:43:11;;;;;;;81.05;34.55;;;;;;;-0.61;79.40;97489.47;10332464;28;96916;-71
2022/01/25 16:48:14;;;;;;;85.38;35.90;;;;;;;-0.62;79.24;97492.91;10322085;28;99019;-67
2022/01/25 16:53:18;;;;;;;88.00;36.88;;;;;;;-0.68;79.25;97487.94;10317718;28;99015;-67
2022/01/25 16:58:21;;;;;;;85.28;35.85;;;;;;;-0.81;79.57;97495.19;10337457;28;97990;-66
2022/01/25 17:03:24;;;;;;;94.10;38.05;;;;;;;-0.73;79.79;97504.34;10342561;28;103026;-66
2022/01/25 17:08:29;;;;;;;98.78;41.72;;;;;;;-0.74;79.56;97507.78;10318843;28;98476;-66
2022/01/25 17:13:32;;;;;;;87.15;37.15;;;;;;;-0.84;80.06;97503.84;10323027;28;97355;-66
2022/01/25 17:18:34;;;;;;;88.05;38.08;;;;;;;-1.09;80.71;97507.13;10328250;28;97901;-66
2022/01/25 17:23:39;;;;;;;92.32;37.47;;;;;;;-1.17;80.93;97509.09;10326298;28;97318;-65
2022/01/25 17:28:42;;;;;;;101.13;39.38;;;;;;;-1.23;80.83;97514.38;10326719;28;96803;-66
2022/01/25 17:33:45;;;;;;;93.88;37.95;;;;;;;-1.22;80.38;97531.44;10332928;28;98360;-65
2022/01/25 17:38:49;;;;;;;90.43;36.65;;;;;;;-1.24;81.16;97520.38;10333386;28;97875;-66
2022/01/25 17:43:52;;;;;;;88.15;39.30;;;;;;;-1.24;81.10;97522.94;10332953;28;97113;-66
2022/01/25 17:48:57;;;;;;;92.22;38.92;;;;;;;-1.18;80.56;97522.78;10324685;28;96795;-66
2022/01/25 17:54:01;;;;;;;91.47;38.03;;;;;;;-1.08;80.92;97529.31;10340841;28;97704;-65
2022/01/25 17:59:05;;;;;;;100.45;40.60;;;;;;;-1.02;80.50;97528.28;10334143;28;98194;-67
2022/01/25 18:04:08;;;;;;;89.80;37.97;;;;;;;-1.11;80.35;97524.28;10328297;28;96856;-66
2022/01/25 18:09:12;;;;;;;92.20;38.33;;;;;;;-1.09;80.94;97532.75;10335539;28;98317;-66
2022/01/25 18:14:15;;;;;;;101.40;40.92;;;;;;;-1.13;80.73;97538.88;10328980;28;97338;-66
2022/01/25 18:19:18;;;;;;;95.60;41.50;;;;;;;-1.23;81.70;97545.16;10330036;28;97915;-66
2022/01/25 18:24:27;;;;;;;104.00;41.75;;;;;;;-1.27;81.31;97553.81;10332088;28;97023;-65
2022/01/25 18:29:30;;;;;;;97.70;39.55;;;;;;;-1.27;81.20;97548.69;10316952;28;98046;-65
2022/01/25 18:34:33;;;;;;;99.43;40.45;;;;;;;-1.19;81.61;97556.16;10334299;28;97000;-66
2022/01/25 18:39:39;;;;;;;102.18;42.33;;;;;;;-1.13;81.18;97544.00;10322816;28;97967;-66
2022/01/25 18:44:42;;;;;;;100.18;39.65;;;;;;;-1.08;80.79;97546.44;10326480;28;97361;-67
2022/01/25 18:49:45;;;;;;;90.22;35.63;;;;;;;-1.09;81.03;97543.03;10330766;28;96997;-67
2022/01/25 18:54:49;;;;;;;85.97;35.00;;;;;;;-1.20;81.35;97539.94;10337525;28;96953;-65
2022/01/25 18:59:53;;;;;;;116.63;40.03;;;;;;;-1.32;82.34;97545.41;10328107;28;97116;-64
2022/01/25 19:04:56;;;;;;;102.20;39.75;;;;;;;-1.43;81.95;97542.28;10323947;28;97087;-67
2022/01/25 19:10:00;;;;;;;113.95;43.28;;;;;;;-1.44;82.17;97540.63;10316838;28;96955;-65
2022/01/25 19:15:05;;;;;;;105.70;44.30;;;;;;;-1.45;81.93;97539.75;10322575;28;96822;-66
2022/01/25 19:20:10;;;;;;;108.90;41.38;;;;;;;-1.54;82.48;97538.28;10315118;28;101871;-66
2022/01/25 19:25:14;;;;;;;117.38;41.95;;;;;;;-1.55;82.75;97538.31;10307702;28;97968;-66
2022/01/25 19:30:19;;;;;;;121.17;45.43;;;;;;;-1.48;82.85;97540.69;10316562;28;97180;-65
2022/01/25 19:35:22;;;;;;;106.13;42.47;;;;;;;-1.42;83.17;97538.84;10326908;28;97220;-64
2022/01/25 19:40:26;;;;;;;114.82;40.78;;;;;;;-1.33;83.00;97538.59;10314151;28;97874;-67
2022/01/25 19:45:31;;;;;;;106.13;40.40;;;;;;;-1.21;82.51;97538.25;10329134;28;96856;-66
2022/01/25 19:50:40;;;;;;;99.05;38.80;;;;;;;-1.04;82.32;97534.38;10320892;28;97408;-66
2022/01/25 19:55:47;;;;;;;108.13;41.50;;;;;;;-1.13;82.39;97531.19;10311933;28;96894;-66
2022/01/25 20:00:50;;;;;;;136.68;43.50;;;;;;;-1.45;82.59;97534.63;10322131;28;103314;-66
2022/01/25 20:05:53;;;;;;;125.57;42.88;;;;;;;-1.57;83.31;97535.84;10315090;28;97243;-68
2022/01/25 20:11:00;;;;;;;143.48;44.30;;;;;;;-1.66;83.37;97536.06;10316061;28;96966;-68
2022/01/25 20:16:05;;;;;;;187.45;46.58;;;;;;;-1.75;84.14;97538.88;10318925;28;96703;-67
2022/01/25 20:21:14;;;;;;;167.35;45.47;;;;;;;-1.97;83.83;97546.25;10320041;28;97933;-66
2022/01/25 20:26:24;;;;;;;217.98;45.13;;;;;;;-2.03;85.08;97547.25;10319309;28;97257;-65
2022/01/25 20:31:32;;;;;;;139.40;43.78;;;;;;;-2.10;84.63;97541.44;10348871;28;96937;-67
2022/01/25 20:36:35;;;;;;;165.75;43.53;;;;;;;-2.06;84.59;97548.16;10320992;28;96915;-66
2022/01/25 20:41:40;;;;;;;182.85;46.58;;;;;;;-2.09;84.07;97537.16;10319348;28;96883;-65
2022/01/25 20:46:44;;;;;;;183.63;43.55;;;;;;;-2.26;84.45;97538.44;10332633;28;98122;-65
2022/01/25 20:51:47;;;;;;;157.02;45.08;;;;;;;-2.20;85.50;97534.03;10326104;28;98115;-67
2022/01/25 20:56:51;;;;;;;169.07;45.28;;;;;;;-2.14;85.18;97534.75;10323268;28;97716;-66
2022/01/25 21:01:58;;;;;;;142.48;42.50;;;;;;;-2.09;84.19;97532.03;10315658;28;98286;-65
2022/01/25 21:07:01;;;;;;;134.32;39.83;;;;;;;-2.09;84.60;97537.16;10306416;28;96990;-66
2022/01/25 21:12:07;;;;;;;172.50;40.80;;;;;;;-2.20;85.17;97529.75;10307113;28;96958;-66
2022/01/25 21:17:10;;;;;;;134.98;40.28;;;;;;;-2.26;84.92;97530.75;10322517;28;103346;-66
2022/01/25 21:22:13;;;;;;;151.88;41.50;;;;;;;-2.14;84.94;97527.06;10320953;28;96995;-65
2022/01/25 21:27:18;;;;;;;117.38;41.42;;;;;;;-2.10;84.47;97532.94;10334196;28;97274;-66
2022/01/25 21:32:21;;;;;;;155.17;37.93;;;;;;;-2.06;85.58;97539.66;10316838;28;96947;-67
2022/01/25 21:37:24;;;;;;;196.05;76.07;;;;;;;-2.24;84.66;97539.22;10317876;28;96790;-71
2022/01/25 21:42:28;;;;;;;129.25;41.10;;;;;;;-2.09;85.72;97537.16;10325055;28;96873;-73
2022/01/25 21:47:31;;;;;;;115.73;41.03;;;;;;;-2.03;85.55;97537.03;10320893;28;98551;-66
2022/01/25 21:52:34;;;;;;;98.07;34.10;;;;;;;-2.19;84.96;97531.44;10310293;28;98771;-67
2022/01/25 21:57:38;;;;;;;111.97;37.05;;;;;;;-2.58;85.25;97528.94;10310632;28;100922;-67
2022/01/25 22:02:45;;;;;;;155.07;53.60;;;;;;;-2.52;85.72;97520.31;10315144;28;96937;-65
2022/01/25 22:07:52;;;;;;;102.05;35.85;;;;;;;-2.53;85.47;97514.31;10330393;28;96880;-69
2022/01/25 22:13:01;;;;;;;104.18;36.25;;;;;;;-2.72;85.55;97516.47;10310659;28;97123;-71
2022/01/25 22:18:05;;;;;;;122.28;39.15;;;;;;;-2.74;86.76;97510.56;10321989;28;98089;-66
2022/01/25 22:23:10;;;;;;;125.93;40.45;;;;;;;-2.67;85.91;97503.59;10319404;28;97287;-68
2022/01/25 22:28:14;;;;;;;144.98;42.78;;;;;;;-2.76;85.85;97514.88;10308953;28;101319;-66
2022/01/25 22:33:17;;;;;;;251.65;97.53;;;;;;;-2.75;86.98;97518.25;10335865;28;97131;-69
2022/01/25 22:38:21;;;;;;;127.32;41.35;;;;;;;-2.60;86.75;97502.56;10318594;28;97203;-66
2022/01/25 22:43:32;;;;;;;118.28;38.25;;;;;;;-2.51;85.30;97509.19;10325415;28;98132;-66
2022/01/25 22:48:39;;;;;;;121.75;38.33;;;;;;;-2.49;85.50;97517.66;10335067;28;98105;-68
2022/01/25 22:53:42;;;;;;;96.78;34.72;;;;;;;-2.63;85.27;97516.28;10328976;28;98006;-66
2022/01/25 22:58:47;;;;;;;109.13;36.30;;;;;;;-2.99;85.65;97515.38;10321446;28;103128;-66
2022/01/25 23:03:52;;;;;;;94.18;32.55;;;;;;;-3.18;86.24;97522.59;10317420;28;98152;-66
2022/01/25 23:08:55;;;;;;;110.15;33.85;;;;;;;-3.19;87.44;97538.81;10344223;28;98333;-66
2022/01/25 23:14:04;;;;;;;92.35;34.90;;;;;;;-3.01;85.98;97532.44;10323567;28;97091;-66
2022/01/25 23:19:15;;;;;;;108.63;34.78;;;;;;;-3.28;86.14;97539.00;10333416;28;96904;-67
2022/01/25 23:24:18;;;;;;;112.32;37.72;;;;;;;-3.49;87.45;97533.44;10320148;28;98617;-66
2022/01/25 23:29:22;;;;;;;100.43;36.88;;;;;;;-3.33;86.29;97538.25;10328624;28;97007;-66
2022/01/25 23:34:45;;;;;;;122.53;36.75;;;;;;;-3.30;87.38;97535.63;10328698;28;96751;-66
2022/01/25 23:39:55;;;;;;;101.60;36.20;;;;;;;-3.27;86.90;97540.66;10323039;28;96966;-66
2022/01/25 23:45:02;;;;;;;114.28;37.13;;;;;;;-3.26;85.93;97534.69;10331168;28;96925;-66
2022/01/25 23:50:12;;;;;;;125.20;40.22;;;;;;;-3.25;86.31;97531.25;10334139;28;96806;-66
